sensor_id;sensor_type;location;lat;lon;timestamp;temperature;humidity
15013;DHT22;7603;49.432;11.418;2023-06-26T00:01:30;16.50;99.90
15013;DHT22;7603;49.432;11.418;2023-06-26T00:03:57;16.50;99.90
15013;DHT22;7603;49.432;11.418;2023-06-26T00:06:24;16.50;99.90
15013;DHT22;7603;49.432;11.418;2023-06-26T00:08:54;16.50;99.90
15013;DHT22;7603;49.432;11.418;2023-06-26T00:11:21;16.40;99.90
15013;DHT22;7603;49.432;11.418;2023-06-26T00:13:47;16.40;99.90
15013;DHT22;7603;49.432;11.418;2023-06-26T00:16:13;16.30;99.90
15013;DHT22;7603;49.432;11.418;2023-06-26T00:18:38;16.40;99.90
15013;DHT22;7603;49.432;11.418;2023-06-26T00:21:04;16.30;99.90
15013;DHT22;7603;49.432;11.418;2023-06-26T00:23:29;16.30;99.90
15013;DHT22;7603;49.432;11.418;2023-06-26T00:26:04;16.30;99.90
15013;DHT22;7603;49.432;11.418;2023-06-26T00:28:29;16.20;99.90
15013;DHT22;7603;49.432;11.418;2023-06-26T00:30:55;16.20;99.90
15013;DHT22;7603;49.432;11.418;2023-06-26T00:33:21;16.20;99.90
15013;DHT22;7603;49.432;11.418;2023-06-26T00:35:47;16.20;99.90
15013;DHT22;7603;49.432;11.418;2023-06-26T00:38:13;16.20;99.90
15013;DHT22;7603;49.432;11.418;2023-06-26T00:40:38;16.20;99.90
15013;DHT22;7603;49.432;11.418;2023-06-26T00:43:04;16.20;99.90
15013;DHT22;7603;49.432;11.418;2023-06-26T00:45:29;16.10;99.90
15013;DHT22;7603;49.432;11.418;2023-06-26T00:47:55;16.10;99.90
15013;DHT22;7603;49.432;11.418;2023-06-26T00:50:21;16.10;99.90
15013;DHT22;7603;49.432;11.418;2023-06-26T00:52:46;16.10;99.90
15013;DHT22;7603;49.432;11.418;2023-06-26T00:55:12;16.00;99.90
15013;DHT22;7603;49.432;11.418;2023-06-26T00:57:38;16.00;99.90
15013;DHT22;7603;49.432;11.418;2023-06-26T01:00:04;16.00;99.90
15013;DHT22;7603;49.432;11.418;2023-06-26T01:02:30;15.90;99.90
15013;DHT22;7603;49.432;11.418;2023-06-26T01:05:02;15.90;99.90
15013;DHT22;7603;49.432;11.418;2023-06-26T01:07:32;15.90;99.90
15013;DHT22;7603;49.432;11.418;2023-06-26T01:10:04;15.90;99.90
15013;DHT22;7603;49.432;11.418;2023-06-26T01:12:34;15.90;99.90
15013;DHT22;7603;49.432;11.418;2023-06-26T01:15:00;15.80;99.90
15013;DHT22;7603;49.432;11.418;2023-06-26T01:17:27;15.80;99.90
15013;DHT22;7603;49.432;11.418;2023-06-26T01:20:00;15.80;99.90
15013;DHT22;7603;49.432;11.418;2023-06-26T01:28:06;15.70;99.90
15013;DHT22;7603;49.432;11.418;2023-06-26T01:30:35;15.60;99.90
15013;DHT22;7603;49.432;11.418;2023-06-26T01:33:02;15.60;99.90
15013;DHT22;7603;49.432;11.418;2023-06-26T01:35:28;15.60;99.90
15013;DHT22;7603;49.432;11.418;2023-06-26T01:38:11;15.60;99.90
15013;DHT22;7603;49.432;11.418;2023-06-26T01:40:37;15.60;99.90
15013;DHT22;7603;49.432;11.418;2023-06-26T01:43:03;15.60;99.90
15013;DHT22;7603;49.432;11.418;2023-06-26T01:45:31;15.60;99.90
15013;DHT22;7603;49.432;11.418;2023-06-26T01:48:00;15.50;99.90
15013;DHT22;7603;49.432;11.418;2023-06-26T01:50:28;15.50;99.90
15013;DHT22;7603;49.432;11.418;2023-06-26T01:53:02;15.40;99.90
15013;DHT22;7603;49.432;11.418;2023-06-26T01:58:03;15.40;99.90
15013;DHT22;7603;49.432;11.418;2023-06-26T02:00:29;15.30;99.90
15013;DHT22;7603;49.432;11.418;2023-06-26T02:02:57;15.30;99.90
15013;DHT22;7603;49.432;11.418;2023-06-26T02:05:23;15.30;99.90
15013;DHT22;7603;49.432;11.418;2023-06-26T02:07:49;15.30;99.90
15013;DHT22;7603;49.432;11.418;2023-06-26T02:10:15;15.30;99.90
15013;DHT22;7603;49.432;11.418;2023-06-26T02:12:41;15.30;99.90
15013;DHT22;7603;49.432;11.418;2023-06-26T02:15:07;15.30;99.90
15013;DHT22;7603;49.432;11.418;2023-06-26T02:17:33;15.30;99.90
15013;DHT22;7603;49.432;11.418;2023-06-26T02:19:58;15.30;99.90
15013;DHT22;7603;49.432;11.418;2023-06-26T02:22:24;15.30;99.90
15013;DHT22;7603;49.432;11.418;2023-06-26T02:24:49;15.20;99.90
15013;DHT22;7603;49.432;11.418;2023-06-26T02:27:15;15.30;99.90
15013;DHT22;7603;49.432;11.418;2023-06-26T02:29:41;15.20;99.90
15013;DHT22;7603;49.432;11.418;2023-06-26T02:32:07;15.20;99.90
15013;DHT22;7603;49.432;11.418;2023-06-26T02:34:34;15.10;99.90
15013;DHT22;7603;49.432;11.418;2023-06-26T02:36:59;15.00;99.90
15013;DHT22;7603;49.432;11.418;2023-06-26T02:39:26;14.90;99.90
15013;DHT22;7603;49.432;11.418;2023-06-26T02:41:52;14.90;99.90
15013;DHT22;7603;49.432;11.418;2023-06-26T02:44:17;14.70;99.90
15013;DHT22;7603;49.432;11.418;2023-06-26T02:46:43;14.70;99.90
15013;DHT22;7603;49.432;11.418;2023-06-26T02:49:09;14.60;99.90
15013;DHT22;7603;49.432;11.418;2023-06-26T02:51:34;14.50;99.90
15013;DHT22;7603;49.432;11.418;2023-06-26T02:54:00;14.50;99.90
15013;DHT22;7603;49.432;11.418;2023-06-26T02:56:26;14.40;99.90
15013;DHT22;7603;49.432;11.418;2023-06-26T02:58:55;14.30;99.90
15013;DHT22;7603;49.432;11.418;2023-06-26T03:01:21;14.30;99.90
15013;DHT22;7603;49.432;11.418;2023-06-26T03:03:47;14.20;99.90
15013;DHT22;7603;49.432;11.418;2023-06-26T03:06:13;14.20;99.90
15013;DHT22;7603;49.432;11.418;2023-06-26T03:08:40;14.20;99.90
15013;DHT22;7603;49.432;11.418;2023-06-26T03:11:07;14.10;99.90
15013;DHT22;7603;49.432;11.418;2023-06-26T03:13:34;14.10;99.90
15013;DHT22;7603;49.432;11.418;2023-06-26T03:15:59;14.00;99.90
15013;DHT22;7603;49.432;11.418;2023-06-26T03:18:25;14.00;99.90
15013;DHT22;7603;49.432;11.418;2023-06-26T03:20:51;14.00;99.90
15013;DHT22;7603;49.432;11.418;2023-06-26T03:23:19;14.00;99.90
15013;DHT22;7603;49.432;11.418;2023-06-26T03:25:45;14.00;99.90
15013;DHT22;7603;49.432;11.418;2023-06-26T03:28:11;13.90;99.90
15013;DHT22;7603;49.432;11.418;2023-06-26T03:30:37;13.90;99.90
15013;DHT22;7603;49.432;11.418;2023-06-26T03:33:03;14.00;99.90
15013;DHT22;7603;49.432;11.418;2023-06-26T03:35:28;13.90;99.90
15013;DHT22;7603;49.432;11.418;2023-06-26T03:37:54;14.00;99.90
15013;DHT22;7603;49.432;11.418;2023-06-26T03:40:19;14.00;99.90
15013;DHT22;7603;49.432;11.418;2023-06-26T03:42:45;14.00;99.90
15013;DHT22;7603;49.432;11.418;2023-06-26T03:45:11;14.00;99.90
15013;DHT22;7603;49.432;11.418;2023-06-26T03:47:36;14.10;99.90
15013;DHT22;7603;49.432;11.418;2023-06-26T03:50:02;14.10;99.90
15013;DHT22;7603;49.432;11.418;2023-06-26T03:52:27;14.10;99.90
15013;DHT22;7603;49.432;11.418;2023-06-26T03:54:59;14.10;99.90
15013;DHT22;7603;49.432;11.418;2023-06-26T03:57:25;14.20;99.90
15013;DHT22;7603;49.432;11.418;2023-06-26T03:59:51;14.20;99.90
15013;DHT22;7603;49.432;11.418;2023-06-26T04:02:17;14.30;99.90
15013;DHT22;7603;49.432;11.418;2023-06-26T04:04:44;14.30;99.90
15013;DHT22;7603;49.432;11.418;2023-06-26T04:07:10;14.30;99.90
15013;DHT22;7603;49.432;11.418;2023-06-26T04:09:35;14.40;99.90
15013;DHT22;7603;49.432;11.418;2023-06-26T04:12:02;14.40;99.90
15013;DHT22;7603;49.432;11.418;2023-06-26T04:14:27;14.40;99.90
15013;DHT22;7603;49.432;11.418;2023-06-26T04:16:53;14.50;99.90
15013;DHT22;7603;49.432;11.418;2023-06-26T04:19:19;14.50;99.90
15013;DHT22;7603;49.432;11.418;2023-06-26T04:21:45;14.50;99.90
15013;DHT22;7603;49.432;11.418;2023-06-26T04:24:10;14.60;99.90
15013;DHT22;7603;49.432;11.418;2023-06-26T04:26:36;14.60;99.90
15013;DHT22;7603;49.432;11.418;2023-06-26T04:29:02;14.70;99.90
15013;DHT22;7603;49.432;11.418;2023-06-26T04:31:28;14.70;99.90
15013;DHT22;7603;49.432;11.418;2023-06-26T04:33:54;14.80;99.90
15013;DHT22;7603;49.432;11.418;2023-06-26T04:36:21;14.80;99.90
15013;DHT22;7603;49.432;11.418;2023-06-26T04:38:46;14.90;99.90
15013;DHT22;7603;49.432;11.418;2023-06-26T04:41:13;15.00;99.90
15013;DHT22;7603;49.432;11.418;2023-06-26T04:43:39;15.10;99.90
15013;DHT22;7603;49.432;11.418;2023-06-26T04:46:05;15.20;99.90
15013;DHT22;7603;49.432;11.418;2023-06-26T04:48:32;15.30;99.90
15013;DHT22;7603;49.432;11.418;2023-06-26T04:50:57;15.40;99.90
15013;DHT22;7603;49.432;11.418;2023-06-26T04:53:24;15.50;99.90
15013;DHT22;7603;49.432;11.418;2023-06-26T04:55:51;15.60;99.90
15013;DHT22;7603;49.432;11.418;2023-06-26T04:58:17;15.70;99.90
15013;DHT22;7603;49.432;11.418;2023-06-26T05:00:42;15.90;99.90
15013;DHT22;7603;49.432;11.418;2023-06-26T05:03:17;16.00;99.90
15013;DHT22;7603;49.432;11.418;2023-06-26T05:05:43;16.20;99.90
15013;DHT22;7603;49.432;11.418;2023-06-26T05:08:16;16.30;99.90
15013;DHT22;7603;49.432;11.418;2023-06-26T05:10:42;16.50;99.90
15013;DHT22;7603;49.432;11.418;2023-06-26T05:13:07;16.70;99.90
15013;DHT22;7603;49.432;11.418;2023-06-26T05:15:33;16.90;99.90
15013;DHT22;7603;49.432;11.418;2023-06-26T05:17:58;17.10;99.90
15013;DHT22;7603;49.432;11.418;2023-06-26T05:20:24;17.30;99.90
15013;DHT22;7603;49.432;11.418;2023-06-26T05:22:50;17.50;99.90
15013;DHT22;7603;49.432;11.418;2023-06-26T05:25:16;17.70;99.90
15013;DHT22;7603;49.432;11.418;2023-06-26T05:27:43;18.00;99.90
15013;DHT22;7603;49.432;11.418;2023-06-26T05:30:10;18.20;99.90
15013;DHT22;7603;49.432;11.418;2023-06-26T05:32:37;18.50;99.90
15013;DHT22;7603;49.432;11.418;2023-06-26T05:35:03;18.70;99.90
15013;DHT22;7603;49.432;11.418;2023-06-26T05:37:32;18.90;99.90
15013;DHT22;7603;49.432;11.418;2023-06-26T05:39:58;19.20;98.10
15013;DHT22;7603;49.432;11.418;2023-06-26T05:42:25;19.40;96.70
15013;DHT22;7603;49.432;11.418;2023-06-26T05:44:51;19.60;96.40
15013;DHT22;7603;49.432;11.418;2023-06-26T05:47:17;19.80;94.70
15013;DHT22;7603;49.432;11.418;2023-06-26T05:49:42;20.00;93.80
15013;DHT22;7603;49.432;11.418;2023-06-26T05:52:08;20.20;92.50
15013;DHT22;7603;49.432;11.418;2023-06-26T05:54:34;20.40;91.50
15013;DHT22;7603;49.432;11.418;2023-06-26T05:57:00;20.60;90.80
15013;DHT22;7603;49.432;11.418;2023-06-26T05:59:26;20.70;90.60
15013;DHT22;7603;49.432;11.418;2023-06-26T06:01:52;20.90;89.30
15013;DHT22;7603;49.432;11.418;2023-06-26T06:04:18;21.10;89.00
15013;DHT22;7603;49.432;11.418;2023-06-26T06:06:44;21.30;86.90
15013;DHT22;7603;49.432;11.418;2023-06-26T06:09:09;21.40;84.50
15013;DHT22;7603;49.432;11.418;2023-06-26T06:11:35;21.60;83.00
15013;DHT22;7603;49.432;11.418;2023-06-26T06:14:00;21.70;80.20
15013;DHT22;7603;49.432;11.418;2023-06-26T06:16:26;21.90;78.90
15013;DHT22;7603;49.432;11.418;2023-06-26T06:18:54;22.00;78.20
15013;DHT22;7603;49.432;11.418;2023-06-26T06:21:20;22.20;76.00
15013;DHT22;7603;49.432;11.418;2023-06-26T06:23:45;22.30;75.10
15013;DHT22;7603;49.432;11.418;2023-06-26T06:26:12;22.50;73.50
15013;DHT22;7603;49.432;11.418;2023-06-26T06:28:38;22.60;73.60
15013;DHT22;7603;49.432;11.418;2023-06-26T06:31:04;22.80;72.40
15013;DHT22;7603;49.432;11.418;2023-06-26T06:33:29;22.90;69.40
15013;DHT22;7603;49.432;11.418;2023-06-26T06:35:55;23.00;67.50
15013;DHT22;7603;49.432;11.418;2023-06-26T06:38:20;23.20;66.30
15013;DHT22;7603;49.432;11.418;2023-06-26T06:40:46;23.30;63.60
15013;DHT22;7603;49.432;11.418;2023-06-26T06:43:11;23.40;62.60
15013;DHT22;7603;49.432;11.418;2023-06-26T06:45:37;23.60;61.70
15013;DHT22;7603;49.432;11.418;2023-06-26T06:48:04;23.60;61.80
15013;DHT22;7603;49.432;11.418;2023-06-26T06:50:29;23.80;62.30
15013;DHT22;7603;49.432;11.418;2023-06-26T06:52:55;24.00;60.10
15013;DHT22;7603;49.432;11.418;2023-06-26T06:55:21;24.10;59.50
15013;DHT22;7603;49.432;11.418;2023-06-26T06:57:46;24.20;59.30
15013;DHT22;7603;49.432;11.418;2023-06-26T07:00:13;24.30;58.50
15013;DHT22;7603;49.432;11.418;2023-06-26T07:02:43;24.40;58.00
15013;DHT22;7603;49.432;11.418;2023-06-26T07:05:10;24.50;58.20
15013;DHT22;7603;49.432;11.418;2023-06-26T07:07:36;24.70;58.70
15013;DHT22;7603;49.432;11.418;2023-06-26T07:10:05;24.80;57.80
15013;DHT22;7603;49.432;11.418;2023-06-26T07:12:31;24.90;57.80
15013;DHT22;7603;49.432;11.418;2023-06-26T07:14:57;25.00;57.80
15013;DHT22;7603;49.432;11.418;2023-06-26T07:17:23;25.10;57.50
15013;DHT22;7603;49.432;11.418;2023-06-26T07:19:49;25.20;57.00
15013;DHT22;7603;49.432;11.418;2023-06-26T07:22:15;25.30;57.50
15013;DHT22;7603;49.432;11.418;2023-06-26T07:24:41;25.40;57.80
15013;DHT22;7603;49.432;11.418;2023-06-26T07:27:07;25.50;56.40
15013;DHT22;7603;49.432;11.418;2023-06-26T07:29:32;25.60;56.20
15013;DHT22;7603;49.432;11.418;2023-06-26T07:31:58;25.70;56.00
15013;DHT22;7603;49.432;11.418;2023-06-26T07:34:24;25.70;56.10
15013;DHT22;7603;49.432;11.418;2023-06-26T07:36:49;25.80;56.30
15013;DHT22;7603;49.432;11.418;2023-06-26T07:39:15;25.90;56.10
15013;DHT22;7603;49.432;11.418;2023-06-26T07:41:40;26.00;55.60
15013;DHT22;7603;49.432;11.418;2023-06-26T07:44:06;26.10;55.30
15013;DHT22;7603;49.432;11.418;2023-06-26T07:46:32;26.20;55.00
15013;DHT22;7603;49.432;11.418;2023-06-26T07:48:57;26.30;54.70
15013;DHT22;7603;49.432;11.418;2023-06-26T07:51:23;26.30;55.20
15013;DHT22;7603;49.432;11.418;2023-06-26T07:53:49;26.40;54.20
15013;DHT22;7603;49.432;11.418;2023-06-26T07:56:14;26.50;53.30
15013;DHT22;7603;49.432;11.418;2023-06-26T07:58:40;26.60;53.40
15013;DHT22;7603;49.432;11.418;2023-06-26T08:01:06;26.70;52.80
15013;DHT22;7603;49.432;11.418;2023-06-26T08:03:31;26.70;52.20
15013;DHT22;7603;49.432;11.418;2023-06-26T08:05:57;26.80;52.00
15013;DHT22;7603;49.432;11.418;2023-06-26T08:08:22;26.90;52.20
15013;DHT22;7603;49.432;11.418;2023-06-26T08:10:48;27.10;51.70
15013;DHT22;7603;49.432;11.418;2023-06-26T08:13:14;27.20;51.80
15013;DHT22;7603;49.432;11.418;2023-06-26T08:15:39;27.30;49.10
15013;DHT22;7603;49.432;11.418;2023-06-26T08:18:05;27.40;49.40
15013;DHT22;7603;49.432;11.418;2023-06-26T08:20:30;27.50;49.10
15013;DHT22;7603;49.432;11.418;2023-06-26T08:22:56;27.60;48.10
15013;DHT22;7603;49.432;11.418;2023-06-26T08:25:21;27.60;47.80
15013;DHT22;7603;49.432;11.418;2023-06-26T08:27:47;27.70;48.10
15013;DHT22;7603;49.432;11.418;2023-06-26T08:30:13;27.80;48.80
15013;DHT22;7603;49.432;11.418;2023-06-26T08:32:39;28.00;47.90
15013;DHT22;7603;49.432;11.418;2023-06-26T08:35:06;28.00;47.50
15013;DHT22;7603;49.432;11.418;2023-06-26T08:37:32;28.10;47.40
15013;DHT22;7603;49.432;11.418;2023-06-26T08:40:00;28.20;47.40
15013;DHT22;7603;49.432;11.418;2023-06-26T08:42:25;28.30;47.30
15013;DHT22;7603;49.432;11.418;2023-06-26T08:44:51;28.30;46.90
15013;DHT22;7603;49.432;11.418;2023-06-26T08:47:18;28.40;46.90
15013;DHT22;7603;49.432;11.418;2023-06-26T08:55:10;28.70;45.20
15013;DHT22;7603;49.432;11.418;2023-06-26T08:57:37;28.80;45.50
15013;DHT22;7603;49.432;11.418;2023-06-26T09:00:04;28.80;43.90
15013;DHT22;7603;49.432;11.418;2023-06-26T09:02:30;28.90;43.90
15013;DHT22;7603;49.432;11.418;2023-06-26T09:04:57;29.00;44.40
15013;DHT22;7603;49.432;11.418;2023-06-26T09:07:22;29.10;44.30
15013;DHT22;7603;49.432;11.418;2023-06-26T09:09:48;29.20;43.90
15013;DHT22;7603;49.432;11.418;2023-06-26T09:12:14;29.40;44.20
15013;DHT22;7603;49.432;11.418;2023-06-26T09:14:39;29.60;43.70
15013;DHT22;7603;49.432;11.418;2023-06-26T09:17:06;29.80;43.70
15013;DHT22;7603;49.432;11.418;2023-06-26T09:19:31;29.90;43.00
15013;DHT22;7603;49.432;11.418;2023-06-26T09:21:57;30.00;42.60
15013;DHT22;7603;49.432;11.418;2023-06-26T09:24:23;30.10;42.70
15013;DHT22;7603;49.432;11.418;2023-06-26T09:26:49;30.30;42.10
15013;DHT22;7603;49.432;11.418;2023-06-26T09:29:15;30.50;41.90
15013;DHT22;7603;49.432;11.418;2023-06-26T09:34:10;31.00;41.70
15013;DHT22;7603;49.432;11.418;2023-06-26T09:36:36;31.30;41.90
15013;DHT22;7603;49.432;11.418;2023-06-26T09:39:06;31.50;41.40
15013;DHT22;7603;49.432;11.418;2023-06-26T09:41:34;31.50;40.60
15013;DHT22;7603;49.432;11.418;2023-06-26T09:44:02;31.60;40.60
15013;DHT22;7603;49.432;11.418;2023-06-26T09:46:29;31.70;40.60
15013;DHT22;7603;49.432;11.418;2023-06-26T09:51:33;31.90;39.50
15013;DHT22;7603;49.432;11.418;2023-06-26T09:53:59;31.80;40.20
15013;DHT22;7603;49.432;11.418;2023-06-26T09:56:25;31.80;39.50
15013;DHT22;7603;49.432;11.418;2023-06-26T09:58:57;31.90;39.90
15013;DHT22;7603;49.432;11.418;2023-06-26T10:01:26;32.00;39.40
15013;DHT22;7603;49.432;11.418;2023-06-26T10:03:53;32.10;39.30
15013;DHT22;7603;49.432;11.418;2023-06-26T10:06:41;32.30;39.00
15013;DHT22;7603;49.432;11.418;2023-06-26T10:09:06;32.40;38.30
15013;DHT22;7603;49.432;11.418;2023-06-26T10:14:11;32.70;37.10
15013;DHT22;7603;49.432;11.418;2023-06-26T10:16:38;32.60;38.10
15013;DHT22;7603;49.432;11.418;2023-06-26T10:19:06;32.50;38.10
15013;DHT22;7603;49.432;11.418;2023-06-26T10:21:34;32.50;37.60
15013;DHT22;7603;49.432;11.418;2023-06-26T10:24:05;32.60;37.20
15013;DHT22;7603;49.432;11.418;2023-06-26T10:26:35;32.50;36.10
15013;DHT22;7603;49.432;11.418;2023-06-26T10:29:02;32.40;36.40
15013;DHT22;7603;49.432;11.418;2023-06-26T10:31:29;32.50;36.80
15013;DHT22;7603;49.432;11.418;2023-06-26T10:33:55;32.80;37.10
15013;DHT22;7603;49.432;11.418;2023-06-26T10:36:29;33.30;36.00
15013;DHT22;7603;49.432;11.418;2023-06-26T10:38:57;33.60;34.90
15013;DHT22;7603;49.432;11.418;2023-06-26T10:41:24;33.60;34.10
15013;DHT22;7603;49.432;11.418;2023-06-26T10:44:06;33.60;34.50
15013;DHT22;7603;49.432;11.418;2023-06-26T10:46:51;33.80;34.10
15013;DHT22;7603;49.432;11.418;2023-06-26T10:49:19;34.80;33.90
15013;DHT22;7603;49.432;11.418;2023-06-26T10:51:49;35.70;32.60
15013;DHT22;7603;49.432;11.418;2023-06-26T10:54:17;37.00;31.50
15013;DHT22;7603;49.432;11.418;2023-06-26T10:56:47;38.40;30.70
15013;DHT22;7603;49.432;11.418;2023-06-26T10:59:18;39.40;29.50
15013;DHT22;7603;49.432;11.418;2023-06-26T11:01:55;40.20;28.90
15013;DHT22;7603;49.432;11.418;2023-06-26T11:04:44;40.60;28.40
15013;DHT22;7603;49.432;11.418;2023-06-26T11:07:16;41.20;27.80
15013;DHT22;7603;49.432;11.418;2023-06-26T11:12:53;40.80;27.10
15013;DHT22;7603;49.432;11.418;2023-06-26T11:15:19;40.80;27.40
15013;DHT22;7603;49.432;11.418;2023-06-26T11:17:46;41.80;27.30
15013;DHT22;7603;49.432;11.418;2023-06-26T11:20:13;43.20;25.80
15013;DHT22;7603;49.432;11.418;2023-06-26T11:22:43;44.20;24.40
15013;DHT22;7603;49.432;11.418;2023-06-26T11:25:10;44.70;23.90
15013;DHT22;7603;49.432;11.418;2023-06-26T11:27:39;45.00;23.70
15013;DHT22;7603;49.432;11.418;2023-06-26T11:30:10;45.50;23.30
15013;DHT22;7603;49.432;11.418;2023-06-26T11:32:37;46.30;22.50
15013;DHT22;7603;49.432;11.418;2023-06-26T11:35:03;46.00;21.20
15013;DHT22;7603;49.432;11.418;2023-06-26T11:37:34;45.40;21.50
15013;DHT22;7603;49.432;11.418;2023-06-26T11:40:16;45.70;21.80
15013;DHT22;7603;49.432;11.418;2023-06-26T11:42:42;46.20;21.40
15013;DHT22;7603;49.432;11.418;2023-06-26T11:45:09;47.20;21.60
15013;DHT22;7603;49.432;11.418;2023-06-26T11:47:35;47.60;20.90
15013;DHT22;7603;49.432;11.418;2023-06-26T11:50:14;47.40;21.10
15013;DHT22;7603;49.432;11.418;2023-06-26T11:52:41;47.60;20.90
15013;DHT22;7603;49.432;11.418;2023-06-26T11:55:07;47.40;20.90
15013;DHT22;7603;49.432;11.418;2023-06-26T11:57:33;46.80;21.40
15013;DHT22;7603;49.432;11.418;2023-06-26T11:59:58;46.30;21.60
15013;DHT22;7603;49.432;11.418;2023-06-26T12:02:35;46.70;21.70
15013;DHT22;7603;49.432;11.418;2023-06-26T12:05:01;47.70;21.50
15013;DHT22;7603;49.432;11.418;2023-06-26T12:07:26;48.50;21.00
15013;DHT22;7603;49.432;11.418;2023-06-26T12:09:52;48.10;20.20
15013;DHT22;7603;49.432;11.418;2023-06-26T12:12:18;47.40;20.20
15013;DHT22;7603;49.432;11.418;2023-06-26T12:14:44;47.40;20.50
15013;DHT22;7603;49.432;11.418;2023-06-26T12:17:11;47.40;19.90
15013;DHT22;7603;49.432;11.418;2023-06-26T12:19:38;47.40;19.90
15013;DHT22;7603;49.432;11.418;2023-06-26T12:22:07;47.40;20.40
15013;DHT22;7603;49.432;11.418;2023-06-26T12:24:36;47.40;19.90
15013;DHT22;7603;49.432;11.418;2023-06-26T12:27:06;47.30;19.90
15013;DHT22;7603;49.432;11.418;2023-06-26T12:29:33;47.10;20.20
15013;DHT22;7603;49.432;11.418;2023-06-26T12:31:59;47.70;20.40
15013;DHT22;7603;49.432;11.418;2023-06-26T12:34:31;48.70;20.00
15013;DHT22;7603;49.432;11.418;2023-06-26T12:37:10;49.30;19.20
15013;DHT22;7603;49.432;11.418;2023-06-26T12:39:53;48.80;18.70
15013;DHT22;7603;49.432;11.418;2023-06-26T12:42:24;48.20;19.40
15013;DHT22;7603;49.432;11.418;2023-06-26T12:44:51;47.90;20.00
15013;DHT22;7603;49.432;11.418;2023-06-26T12:47:17;47.90;19.80
15013;DHT22;7603;49.432;11.418;2023-06-26T12:49:44;48.30;20.00
15013;DHT22;7603;49.432;11.418;2023-06-26T12:52:14;48.60;19.70
15013;DHT22;7603;49.432;11.418;2023-06-26T12:54:42;48.10;19.60
15013;DHT22;7603;49.432;11.418;2023-06-26T12:57:08;47.40;19.70
15013;DHT22;7603;49.432;11.418;2023-06-26T12:59:35;48.10;19.60
15013;DHT22;7603;49.432;11.418;2023-06-26T13:02:01;49.30;19.20
15013;DHT22;7603;49.432;11.418;2023-06-26T13:04:27;50.50;19.00
15013;DHT22;7603;49.432;11.418;2023-06-26T13:06:53;50.90;18.50
15013;DHT22;7603;49.432;11.418;2023-06-26T13:09:23;50.40;18.70
15013;DHT22;7603;49.432;11.418;2023-06-26T13:11:50;49.70;18.90
15013;DHT22;7603;49.432;11.418;2023-06-26T13:14:16;48.70;18.90
15013;DHT22;7603;49.432;11.418;2023-06-26T13:16:41;47.50;19.10
15013;DHT22;7603;49.432;11.418;2023-06-26T13:19:07;46.90;19.70
15013;DHT22;7603;49.432;11.418;2023-06-26T13:21:33;47.00;20.00
15013;DHT22;7603;49.432;11.418;2023-06-26T13:23:59;47.80;20.10
15013;DHT22;7603;49.432;11.418;2023-06-26T13:26:25;49.10;19.40
15013;DHT22;7603;49.432;11.418;2023-06-26T13:28:52;49.90;18.60
15013;DHT22;7603;49.432;11.418;2023-06-26T13:31:18;49.80;19.10
15013;DHT22;7603;49.432;11.418;2023-06-26T13:33:44;49.70;18.90
15013;DHT22;7603;49.432;11.418;2023-06-26T13:36:10;49.80;19.00
15013;DHT22;7603;49.432;11.418;2023-06-26T13:38:35;50.50;19.10
15013;DHT22;7603;49.432;11.418;2023-06-26T13:41:01;50.80;18.30
15013;DHT22;7603;49.432;11.418;2023-06-26T13:43:27;50.50;18.30
15013;DHT22;7603;49.432;11.418;2023-06-26T13:45:54;49.90;18.50
15013;DHT22;7603;49.432;11.418;2023-06-26T13:48:20;49.50;18.60
15013;DHT22;7603;49.432;11.418;2023-06-26T13:50:46;49.20;18.90
15013;DHT22;7603;49.432;11.418;2023-06-26T13:53:12;50.10;19.10
15013;DHT22;7603;49.432;11.418;2023-06-26T13:55:38;51.00;18.80
15013;DHT22;7603;49.432;11.418;2023-06-26T13:58:07;50.50;18.70
15013;DHT22;7603;49.432;11.418;2023-06-26T14:00:34;49.30;19.10
15013;DHT22;7603;49.432;11.418;2023-06-26T14:03:00;48.60;19.50
15013;DHT22;7603;49.432;11.418;2023-06-26T14:05:26;48.20;19.50
15013;DHT22;7603;49.432;11.418;2023-06-26T14:07:52;47.50;20.00
15013;DHT22;7603;49.432;11.418;2023-06-26T14:10:20;46.90;20.90
15013;DHT22;7603;49.432;11.418;2023-06-26T14:12:45;46.10;20.60
15013;DHT22;7603;49.432;11.418;2023-06-26T14:15:11;45.10;21.50
15013;DHT22;7603;49.432;11.418;2023-06-26T14:17:36;44.00;22.30
15013;DHT22;7603;49.432;11.418;2023-06-26T14:20:08;43.50;22.90
15013;DHT22;7603;49.432;11.418;2023-06-26T14:22:42;43.20;23.30
15013;DHT22;7603;49.432;11.418;2023-06-26T14:25:09;44.30;23.40
15013;DHT22;7603;49.432;11.418;2023-06-26T14:27:35;46.10;22.60
15013;DHT22;7603;49.432;11.418;2023-06-26T14:30:03;47.60;22.10
15013;DHT22;7603;49.432;11.418;2023-06-26T14:32:29;47.70;21.80
15013;DHT22;7603;49.432;11.418;2023-06-26T14:34:55;46.80;22.00
15013;DHT22;7603;49.432;11.418;2023-06-26T14:37:21;46.10;22.40
15013;DHT22;7603;49.432;11.418;2023-06-26T14:39:46;45.60;22.60
15013;DHT22;7603;49.432;11.418;2023-06-26T14:42:12;44.60;22.80
15013;DHT22;7603;49.432;11.418;2023-06-26T14:44:38;43.60;23.70
15013;DHT22;7603;49.432;11.418;2023-06-26T14:47:03;43.40;24.00
15013;DHT22;7603;49.432;11.418;2023-06-26T14:49:30;43.70;23.70
15013;DHT22;7603;49.432;11.418;2023-06-26T14:51:55;44.20;23.80
15013;DHT22;7603;49.432;11.418;2023-06-26T14:54:21;44.60;23.60
15013;DHT22;7603;49.432;11.418;2023-06-26T14:56:46;44.80;23.40
15013;DHT22;7603;49.432;11.418;2023-06-26T14:59:12;44.50;23.70
15013;DHT22;7603;49.432;11.418;2023-06-26T15:01:38;45.00;23.90
15013;DHT22;7603;49.432;11.418;2023-06-26T15:04:05;45.60;23.60
15013;DHT22;7603;49.432;11.418;2023-06-26T15:06:31;46.00;23.30
15013;DHT22;7603;49.432;11.418;2023-06-26T15:08:57;47.10;23.20
15013;DHT22;7603;49.432;11.418;2023-06-26T15:11:23;48.70;22.50
15013;DHT22;7603;49.432;11.418;2023-06-26T15:13:49;49.50;21.50
15013;DHT22;7603;49.432;11.418;2023-06-26T15:16:14;49.90;21.50
15013;DHT22;7603;49.432;11.418;2023-06-26T15:18:40;50.50;21.20
15013;DHT22;7603;49.432;11.418;2023-06-26T15:21:06;50.40;21.10
15013;DHT22;7603;49.432;11.418;2023-06-26T15:23:33;50.50;20.90
15013;DHT22;7603;49.432;11.418;2023-06-26T15:25:58;50.50;21.00
15013;DHT22;7603;49.432;11.418;2023-06-26T15:28:24;50.10;20.60
15013;DHT22;7603;49.432;11.418;2023-06-26T15:30:50;48.40;21.10
15013;DHT22;7603;49.432;11.418;2023-06-26T15:33:15;45.90;22.20
15013;DHT22;7603;49.432;11.418;2023-06-26T15:35:41;43.80;23.70
15013;DHT22;7603;49.432;11.418;2023-06-26T15:38:06;41.80;24.90
15013;DHT22;7603;49.432;11.418;2023-06-26T15:40:32;40.40;26.20
15013;DHT22;7603;49.432;11.418;2023-06-26T15:42:57;40.20;27.20
15013;DHT22;7603;49.432;11.418;2023-06-26T15:45:23;39.20;27.80
15013;DHT22;7603;49.432;11.418;2023-06-26T15:47:51;39.30;29.00
15013;DHT22;7603;49.432;11.418;2023-06-26T15:50:17;40.00;28.40
15013;DHT22;7603;49.432;11.418;2023-06-26T15:52:44;41.10;27.80